Time;durP1;ratioP1;P1;durP2;ratioP2;P2;SDS_P1;SDS_P2;PMS_P1;PMS_P2;Temp;Humidity;BMP_temperature;BMP_pressure;BME280_temperature;BME280_humidity;BME280_pressure;Samples;Min_cycle;Max_cycle;Signal;HPM_P1;HPM_P2
2022/01/08 00:02:11;;;;;;;7.43;4.45;;;;;;;;;;5029483;28;20105;-50
2022/01/08 00:04:38;;;;;;;6.60;4.20;;;;;;;;;;5029909;28;20048;-50
2022/01/08 00:07:04;;;;;;;8.43;4.93;;;;;;;;;;5026759;28;20040;-51
2022/01/08 00:09:29;;;;;;;8.25;4.30;;;;;;;;;;5029827;28;20025;-50
2022/01/08 00:11:55;;;;;;;8.02;4.68;;;;;;;;;;5029445;28;20026;-51
2022/01/08 00:14:23;;;;;;;9.00;4.97;;;;;;;;;;5026146;28;20120;-51
2022/01/08 00:16:49;;;;;;;8.85;4.65;;;;;;;;;;5016031;28;20045;-50
2022/01/08 00:19:15;;;;;;;6.45;3.90;;;;;;;;;;5014168;28;20117;-51
2022/01/08 00:21:41;;;;;;;7.57;4.78;;;;;;;;;;5036930;28;20091;-51
2022/01/08 00:24:07;;;;;;;8.65;4.55;;;;;;;;;;5023816;28;20036;-50
2022/01/08 00:26:33;;;;;;;7.05;4.60;;;;;;;;;;5022021;28;20557;-51
2022/01/08 00:28:59;;;;;;;7.22;4.80;;;;;;;;;;5015008;28;20030;-51
2022/01/08 00:31:25;;;;;;;7.28;4.40;;;;;;;;;;5024293;28;20064;-50
2022/01/08 00:33:52;;;;;;;8.63;4.93;;;;;;;;;;5022263;28;20072;-50
2022/01/08 00:36:18;;;;;;;10.50;5.70;;;;;;;;;;5029897;28;20086;-51
2022/01/08 00:38:44;;;;;;;7.15;4.72;;;;;;;;;;5014352;28;20427;-51
2022/01/08 00:41:10;;;;;;;9.02;4.95;;;;;;;;;;5022454;28;20105;-52
2022/01/08 00:43:36;;;;;;;7.40;4.70;;;;;;;;;;5021953;28;20037;-53
2022/01/08 00:46:03;;;;;;;10.05;4.93;;;;;;;;;;5030064;28;20047;-52
2022/01/08 00:48:29;;;;;;;11.55;5.05;;;;;;;;;;5029517;28;20025;-53
2022/01/08 00:50:55;;;;;;;8.20;4.90;;;;;;;;;;5020277;28;20531;-50
2022/01/08 00:53:21;;;;;;;8.85;4.90;;;;;;;;;;5030961;28;20021;-50
2022/01/08 00:55:47;;;;;;;5.60;3.90;;;;;;;;;;5026406;28;20030;-52
2022/01/08 00:58:13;;;;;;;8.88;4.97;;;;;;;;;;5013491;28;20109;-50
2022/01/08 01:00:41;;;;;;;6.93;4.65;;;;;;;;;;5028129;28;20025;-51
2022/01/08 01:03:07;;;;;;;9.85;4.90;;;;;;;;;;5029822;28;20408;-51
2022/01/08 01:05:33;;;;;;;7.28;4.22;;;;;;;;;;5028581;28;20041;-50
2022/01/08 01:07:59;;;;;;;7.53;4.93;;;;;;;;;;5027633;28;20033;-51
2022/01/08 01:10:25;;;;;;;7.85;5.15;;;;;;;;;;5034719;28;20033;-50
2022/01/08 01:12:51;;;;;;;6.78;4.30;;;;;;;;;;5022603;28;20034;-50
2022/01/08 01:15:17;;;;;;;6.72;4.57;;;;;;;;;;5022311;28;20033;-51
2022/01/08 01:17:45;;;;;;;9.27;5.13;;;;;;;;;;5028920;28;20036;-50
2022/01/08 01:20:14;;;;;;;10.43;5.05;;;;;;;;;;5032007;28;20074;-52
2022/01/08 01:22:47;;;;;;;9.73;5.18;;;;;;;;;;5040848;28;20033;-50
2022/01/08 01:25:18;;;;;;;9.10;4.95;;;;;;;;;;5026316;28;20034;-49
2022/01/08 01:27:58;;;;;;;11.13;5.40;;;;;;;;;;5031060;28;20030;-50
2022/01/08 01:30:53;;;;;;;7.03;4.55;;;;;;;;;;5022069;28;20041;-50
2022/01/08 01:41:44;;;;;;;7.75;4.80;;;;;;;;;;5033289;28;20047;-50
2022/01/08 01:49:04;;;;;;;10.35;6.50;;;;;;;;;;5034935;28;20696;-50
2022/01/08 01:51:30;;;;;;;9.27;6.18;;;;;;;;;;5033711;28;20029;-50
2022/01/08 01:53:55;;;;;;;12.25;6.72;;;;;;;;;;5026496;28;20140;-51
2022/01/08 01:56:22;;;;;;;11.95;6.93;;;;;;;;;;5021452;28;20061;-51
2022/01/08 01:58:48;;;;;;;13.98;7.45;;;;;;;;;;5034534;28;20032;-50
2022/01/08 02:01:14;;;;;;;13.45;7.38;;;;;;;;;;5022387;28;20120;-51
2022/01/08 02:03:40;;;;;;;12.18;6.80;;;;;;;;;;5032834;28;20030;-51
2022/01/08 02:06:07;;;;;;;12.57;7.53;;;;;;;;;;5033499;28;20366;-52
2022/01/08 02:08:33;;;;;;;15.55;7.55;;;;;;;;;;5030014;28;20378;-51
2022/01/08 02:11:00;;;;;;;12.65;7.13;;;;;;;;;;5028599;28;20037;-55
2022/01/08 02:13:26;;;;;;;15.02;7.97;;;;;;;;;;5040925;28;20045;-51
2022/01/08 02:15:54;;;;;;;14.60;7.82;;;;;;;;;;5031093;28;20025;-51
2022/01/08 02:18:21;;;;;;;14.40;8.57;;;;;;;;;;5022573;28;20022;-53
2022/01/08 02:20:47;;;;;;;14.38;7.50;;;;;;;;;;5036992;28;20507;-50
2022/01/08 02:23:13;;;;;;;14.68;7.72;;;;;;;;;;5033821;28;20362;-51
2022/01/08 02:25:39;;;;;;;14.52;7.68;;;;;;;;;;5023268;28;20092;-53
2022/01/08 02:28:05;;;;;;;13.05;7.40;;;;;;;;;;5034554;28;20034;-50
2022/01/08 02:30:32;;;;;;;15.15;7.80;;;;;;;;;;5034513;28;20385;-50
2022/01/08 02:32:58;;;;;;;12.10;7.07;;;;;;;;;;5026124;28;20548;-52
2022/01/08 02:35:24;;;;;;;13.75;7.80;;;;;;;;;;5033507;28;20117;-51
2022/01/08 02:37:51;;;;;;;10.80;7.13;;;;;;;;;;5027083;28;20052;-51
2022/01/08 02:40:19;;;;;;;15.85;7.65;;;;;;;;;;5025214;28;20095;-51
2022/01/08 02:42:53;;;;;;;11.15;7.03;;;;;;;;;;5030568;28;20025;-51
2022/01/08 02:45:20;;;;;;;11.90;7.38;;;;;;;;;;5033326;28;20378;-50
2022/01/08 02:47:46;;;;;;;12.05;7.10;;;;;;;;;;5021645;28;20095;-50
2022/01/08 02:50:12;;;;;;;10.93;6.25;;;;;;;;;;5018905;28;20032;-50
2022/01/08 02:52:42;;;;;;;10.52;6.00;;;;;;;;;;5028697;28;20556;-52
2022/01/08 02:55:08;;;;;;;9.35;5.35;;;;;;;;;;5023626;28;20033;-50
2022/01/08 02:57:34;;;;;;;8.93;5.47;;;;;;;;;;5032764;28;20102;-50
2022/01/08 03:00:00;;;;;;;10.98;6.13;;;;;;;;;;5030926;28;20106;-50
2022/01/08 03:02:26;;;;;;;9.45;5.53;;;;;;;;;;5028309;28;20030;-51
2022/01/08 03:04:54;;;;;;;8.60;5.60;;;;;;;;;;5022202;28;20358;-50
2022/01/08 03:07:20;;;;;;;9.13;5.38;;;;;;;;;;5032969;28;20021;-51
2022/01/08 03:09:55;;;;;;;9.05;5.50;;;;;;;;;;5031259;28;20132;-54
2022/01/08 03:12:21;;;;;;;8.73;5.38;;;;;;;;;;5034456;28;20103;-52
2022/01/08 03:14:47;;;;;;;11.10;5.78;;;;;;;;;;5027976;28;20021;-50
2022/01/08 03:17:13;;;;;;;8.38;5.05;;;;;;;;;;5024106;28;20033;-50
2022/01/08 03:19:39;;;;;;;10.73;5.05;;;;;;;;;;5028143;28;20612;-51
2022/01/08 03:22:05;;;;;;;8.07;5.05;;;;;;;;;;5026482;28;20030;-51
2022/01/08 03:24:31;;;;;;;9.90;5.03;;;;;;;;;;5026881;28;20045;-52
2022/01/08 03:26:58;;;;;;;8.60;5.53;;;;;;;;;;5023586;28;20406;-51
2022/01/08 03:29:24;;;;;;;8.13;4.82;;;;;;;;;;5029552;28;20029;-51
2022/01/08 03:31:50;;;;;;;8.60;4.88;;;;;;;;;;5027557;28;20108;-51
2022/01/08 03:34:17;;;;;;;11.77;5.63;;;;;;;;;;5027293;28;20115;-51
2022/01/08 03:36:43;;;;;;;7.65;4.78;;;;;;;;;;5033107;28;20080;-52
2022/01/08 03:39:09;;;;;;;9.77;5.22;;;;;;;;;;5023330;28;20064;-52
2022/01/08 03:41:35;;;;;;;7.75;4.88;;;;;;;;;;5032705;28;20100;-50
2022/01/08 03:44:01;;;;;;;9.52;5.32;;;;;;;;;;5018538;28;20029;-54
2022/01/08 03:46:29;;;;;;;9.15;5.40;;;;;;;;;;5013342;28;20034;-51
2022/01/08 03:51:27;;;;;;;9.97;5.63;;;;;;;;;;5020942;28;20049;-50
2022/01/08 03:53:53;;;;;;;10.60;5.10;;;;;;;;;;5021550;28;20029;-55
2022/01/08 03:56:19;;;;;;;10.95;5.40;;;;;;;;;;5031754;28;20159;-56
2022/01/08 03:58:45;;;;;;;10.20;5.75;;;;;;;;;;5031748;28;20032;-51
2022/01/08 04:01:11;;;;;;;9.73;5.80;;;;;;;;;;5025673;28;20017;-51
2022/01/08 04:03:37;;;;;;;11.10;5.30;;;;;;;;;;5025206;28;20067;-56
2022/01/08 04:06:03;;;;;;;8.93;5.55;;;;;;;;;;5029106;28;20083;-53
2022/01/08 04:08:30;;;;;;;13.00;5.63;;;;;;;;;;5019157;28;20438;-55
2022/01/08 04:10:55;;;;;;;12.27;5.40;;;;;;;;;;5028146;28;20168;-52
2022/01/08 04:13:26;;;;;;;8.85;5.63;;;;;;;;;;5031093;28;20478;-52
2022/01/08 04:15:57;;;;;;;9.32;5.75;;;;;;;;;;5021078;28;20418;-50
2022/01/08 04:18:23;;;;;;;9.93;5.50;;;;;;;;;;5027442;28;20120;-51
2022/01/08 04:23:19;;;;;;;7.72;5.10;;;;;;;;;;5032067;28;20120;-52
2022/01/08 04:25:45;;;;;;;9.50;5.30;;;;;;;;;;5016774;28;20029;-51
2022/01/08 04:28:11;;;;;;;9.20;5.55;;;;;;;;;;5021530;28;20645;-53
2022/01/08 04:30:37;;;;;;;8.93;5.15;;;;;;;;;;5023013;28;20096;-51
2022/01/08 04:33:03;;;;;;;10.00;5.18;;;;;;;;;;5019382;28;20044;-51
2022/01/08 04:35:29;;;;;;;9.38;5.40;;;;;;;;;;5029048;28;20026;-52
2022/01/08 04:37:55;;;;;;;11.13;5.25;;;;;;;;;;5025628;28;20022;-50
2022/01/08 04:40:21;;;;;;;11.02;5.50;;;;;;;;;;5020384;28;20029;-51
2022/01/08 04:42:47;;;;;;;8.80;5.30;;;;;;;;;;5020053;28;20030;-53
2022/01/08 04:45:13;;;;;;;10.55;5.70;;;;;;;;;;5030919;28;20034;-53
2022/01/08 04:47:41;;;;;;;9.02;5.25;;;;;;;;;;5021055;28;20026;-54
2022/01/08 04:50:07;;;;;;;8.40;5.50;;;;;;;;;;5024821;28;20037;-52
2022/01/08 04:52:33;;;;;;;11.48;5.63;;;;;;;;;;5031875;28;20025;-53
2022/01/08 04:54:59;;;;;;;8.07;5.53;;;;;;;;;;5019276;28;20044;-53
2022/01/08 04:57:25;;;;;;;11.07;5.75;;;;;;;;;;5031989;28;20029;-54
2022/01/08 04:59:51;;;;;;;9.32;5.40;;;;;;;;;;5027658;28;20125;-55
2022/01/08 05:02:17;;;;;;;8.68;5.25;;;;;;;;;;5016959;28;20110;-51
2022/01/08 05:04:43;;;;;;;10.70;5.78;;;;;;;;;;5031802;28;20025;-54
2022/01/08 05:07:09;;;;;;;8.32;5.05;;;;;;;;;;5018925;28;20059;-51
2022/01/08 05:09:35;;;;;;;10.32;5.63;;;;;;;;;;5028351;28;20487;-52
2022/01/08 05:12:01;;;;;;;10.70;6.03;;;;;;;;;;5023180;28;20057;-54
2022/01/08 05:14:27;;;;;;;9.23;5.72;;;;;;;;;;5031743;28;20076;-52
2022/01/08 05:16:58;;;;;;;9.45;5.25;;;;;;;;;;5023432;28;20480;-51
2022/01/08 05:19:36;;;;;;;9.80;5.68;;;;;;;;;;5031799;28;20022;-53
2022/01/08 05:22:05;;;;;;;9.25;5.65;;;;;;;;;;5024752;28;20028;-54
2022/01/08 05:24:31;;;;;;;8.48;5.30;;;;;;;;;;5031207;28;20053;-51
2022/01/08 05:26:56;;;;;;;11.10;5.68;;;;;;;;;;5030478;28;20504;-50
2022/01/08 05:29:22;;;;;;;10.70;5.57;;;;;;;;;;5031729;28;20026;-51
2022/01/08 05:31:49;;;;;;;9.88;5.60;;;;;;;;;;5027567;28;20398;-52
2022/01/08 05:34:15;;;;;;;8.95;5.47;;;;;;;;;;5026364;28;20116;-54
2022/01/08 05:36:41;;;;;;;9.20;6.07;;;;;;;;;;5016923;28;20034;-56
2022/01/08 05:39:06;;;;;;;11.05;5.82;;;;;;;;;;5024093;28;20032;-53
2022/01/08 05:41:32;;;;;;;9.98;5.63;;;;;;;;;;5023531;28;20025;-53
2022/01/08 05:43:58;;;;;;;11.25;5.82;;;;;;;;;;5019908;28;20112;-52
2022/01/08 05:46:24;;;;;;;9.98;6.13;;;;;;;;;;5030804;28;20041;-55
2022/01/08 05:48:50;;;;;;;9.15;6.22;;;;;;;;;;5021317;28;20036;-51
2022/01/08 05:51:16;;;;;;;13.02;6.97;;;;;;;;;;5025244;28;20034;-51
2022/01/08 05:53:42;;;;;;;12.52;5.97;;;;;;;;;;5027256;28;20405;-55
2022/01/08 05:56:08;;;;;;;11.25;5.55;;;;;;;;;;5032653;28;20079;-50
2022/01/08 05:58:35;;;;;;;10.70;6.30;;;;;;;;;;5031995;28;20017;-53
2022/01/08 06:01:01;;;;;;;12.00;5.55;;;;;;;;;;5028050;28;20674;-51
2022/01/08 06:03:27;;;;;;;9.80;5.88;;;;;;;;;;5034977;28;20112;-50
2022/01/08 06:05:53;;;;;;;12.10;6.00;;;;;;;;;;5034833;28;20029;-51
2022/01/08 06:08:19;;;;;;;11.65;6.13;;;;;;;;;;5033624;28;20028;-50
2022/01/08 06:10:45;;;;;;;10.93;6.15;;;;;;;;;;5031721;28;20036;-56
2022/01/08 06:13:11;;;;;;;12.18;6.63;;;;;;;;;;5044099;28;20029;-51
2022/01/08 06:15:37;;;;;;;10.23;5.70;;;;;;;;;;5034190;28;20034;-52
2022/01/08 06:18:03;;;;;;;9.88;5.25;;;;;;;;;;5031340;28;20045;-50
2022/01/08 06:20:29;;;;;;;11.95;6.05;;;;;;;;;;5033326;28;20029;-53
2022/01/08 06:22:55;;;;;;;9.23;5.25;;;;;;;;;;5034163;28;20022;-55
2022/01/08 06:25:21;;;;;;;10.63;6.10;;;;;;;;;;5034457;28;20100;-54
2022/01/08 06:27:47;;;;;;;11.98;6.00;;;;;;;;;;5034420;28;20033;-56
2022/01/08 06:30:13;;;;;;;10.00;5.53;;;;;;;;;;5031672;28;20029;-55
2022/01/08 06:32:39;;;;;;;13.75;5.78;;;;;;;;;;5034346;28;20034;-51
2022/01/08 06:35:05;;;;;;;10.07;5.30;;;;;;;;;;5034126;28;20127;-53
2022/01/08 06:37:31;;;;;;;10.25;5.38;;;;;;;;;;5034232;28;20029;-55
2022/01/08 06:39:57;;;;;;;10.43;6.00;;;;;;;;;;5028617;28;20449;-54
2022/01/08 06:42:23;;;;;;;12.88;7.00;;;;;;;;;;5033964;28;20436;-52
2022/01/08 06:44:49;;;;;;;10.48;5.80;;;;;;;;;;5034156;28;20036;-52
2022/01/08 06:47:15;;;;;;;11.57;6.10;;;;;;;;;;5031633;28;20053;-52
2022/01/08 06:49:41;;;;;;;9.65;5.72;;;;;;;;;;5030336;28;20060;-51
2022/01/08 06:52:07;;;;;;;11.38;6.45;;;;;;;;;;5033490;28;20079;-55
2022/01/08 06:54:33;;;;;;;8.95;5.32;;;;;;;;;;5034007;28;20083;-51
2022/01/08 06:56:59;;;;;;;11.77;6.57;;;;;;;;;;5033850;28;20030;-53
2022/01/08 06:59:25;;;;;;;9.05;5.43;;;;;;;;;;5029694;28;20036;-50
2022/01/08 07:01:51;;;;;;;12.65;6.35;;;;;;;;;;5031682;28;20024;-55
2022/01/08 07:04:17;;;;;;;11.43;6.03;;;;;;;;;;5026108;28;20049;-51
2022/01/08 07:06:43;;;;;;;12.32;5.90;;;;;;;;;;5017829;28;20508;-53
2022/01/08 07:09:09;;;;;;;12.00;6.43;;;;;;;;;;5019256;28;20029;-51
2022/01/08 07:11:35;;;;;;;9.73;6.15;;;;;;;;;;5028932;28;20133;-56
2022/01/08 07:14:02;;;;;;;9.82;6.25;;;;;;;;;;5033380;28;20429;-53
2022/01/08 07:16:28;;;;;;;11.27;6.70;;;;;;;;;;5030661;28;20489;-51
2022/01/08 07:18:54;;;;;;;9.52;5.20;;;;;;;;;;5033278;28;20025;-52
2022/01/08 07:21:20;;;;;;;9.77;5.95;;;;;;;;;;5030237;28;20381;-55
2022/01/08 07:23:46;;;;;;;11.00;6.00;;;;;;;;;;5029421;28;20029;-55
2022/01/08 07:26:12;;;;;;;8.48;5.00;;;;;;;;;;5030031;28;20029;-56
2022/01/08 07:28:39;;;;;;;10.05;5.90;;;;;;;;;;5032655;28;20037;-55
2022/01/08 07:31:05;;;;;;;10.02;6.28;;;;;;;;;;5031574;28;20100;-53
2022/01/08 07:33:31;;;;;;;12.15;6.07;;;;;;;;;;5030072;28;21283;-55
2022/01/08 07:35:57;;;;;;;12.02;6.43;;;;;;;;;;5030636;28;20065;-53
2022/01/08 07:38:23;;;;;;;12.55;6.68;;;;;;;;;;5031059;28;20100;-56
2022/01/08 07:40:51;;;;;;;13.75;6.45;;;;;;;;;;5033188;28;20412;-55
2022/01/08 07:43:18;;;;;;;8.98;5.68;;;;;;;;;;5031474;28;20033;-52
2022/01/08 07:45:44;;;;;;;10.45;5.93;;;;;;;;;;5024696;28;20033;-52
2022/01/08 07:48:10;;;;;;;10.60;6.07;;;;;;;;;;5031486;28;20066;-55
2022/01/08 07:50:36;;;;;;;10.45;5.80;;;;;;;;;;5032433;28;20104;-51
2022/01/08 07:53:02;;;;;;;11.63;5.30;;;;;;;;;;5027034;28;20125;-52
2022/01/08 07:55:28;;;;;;;11.65;5.90;;;;;;;;;;5023333;28;20270;-52
2022/01/08 07:57:54;;;;;;;12.52;6.50;;;;;;;;;;5021024;28;20045;-54
2022/01/08 08:00:20;;;;;;;12.70;6.38;;;;;;;;;;5030083;28;20018;-54
2022/01/08 08:02:46;;;;;;;9.10;5.63;;;;;;;;;;5029081;28;20091;-55
2022/01/08 08:05:12;;;;;;;15.50;6.55;;;;;;;;;;5019816;28;20041;-52
2022/01/08 08:07:39;;;;;;;12.75;6.97;;;;;;;;;;5026166;28;20025;-52
2022/01/08 08:10:17;;;;;;;13.00;7.18;;;;;;;;;;5028956;28;20030;-55
2022/01/08 08:12:43;;;;;;;12.95;7.85;;;;;;;;;;5023465;28;20053;-50
2022/01/08 08:15:12;;;;;;;12.82;6.63;;;;;;;;;;5031583;28;20113;-53
2022/01/08 08:17:38;;;;;;;17.17;7.45;;;;;;;;;;5021229;28;20476;-52
2022/01/08 08:20:04;;;;;;;12.45;6.68;;;;;;;;;;5034040;28;20029;-51
2022/01/08 08:22:30;;;;;;;10.60;6.28;;;;;;;;;;5016295;28;20083;-52
2022/01/08 08:24:56;;;;;;;11.15;6.18;;;;;;;;;;5024290;28;20021;-54
2022/01/08 08:27:22;;;;;;;13.27;6.47;;;;;;;;;;5027245;28;20413;-52
2022/01/08 08:29:48;;;;;;;10.65;6.18;;;;;;;;;;5028427;28;20112;-53
2022/01/08 08:32:14;;;;;;;11.77;6.43;;;;;;;;;;5020011;28;20394;-56
2022/01/08 08:34:41;;;;;;;11.23;6.22;;;;;;;;;;5031340;28;20076;-54
2022/01/08 08:37:07;;;;;;;10.32;6.07;;;;;;;;;;5031499;28;20458;-56
2022/01/08 08:39:33;;;;;;;12.10;6.13;;;;;;;;;;5031854;28;20033;-53
2022/01/08 08:42:00;;;;;;;13.90;7.03;;;;;;;;;;5030348;28;20428;-54
2022/01/08 08:44:27;;;;;;;13.77;7.50;;;;;;;;;;5027329;28;20032;-56
2022/01/08 08:46:52;;;;;;;12.00;7.20;;;;;;;;;;5031499;28;20041;-52
2022/01/08 08:49:18;;;;;;;12.00;6.75;;;;;;;;;;5029055;28;20025;-54
2022/01/08 08:51:44;;;;;;;14.32;6.70;;;;;;;;;;5031345;28;20095;-55
2022/01/08 08:54:10;;;;;;;11.70;6.15;;;;;;;;;;5026030;28;20029;-52
2022/01/08 08:56:38;;;;;;;12.65;7.30;;;;;;;;;;5031432;28;20029;-53
2022/01/08 08:59:05;;;;;;;10.88;6.60;;;;;;;;;;5024530;28;20115;-50
2022/01/08 09:01:31;;;;;;;12.90;7.05;;;;;;;;;;5020536;28;20049;-55
2022/01/08 09:03:57;;;;;;;12.60;6.70;;;;;;;;;;5019365;28;20026;-52
2022/01/08 09:06:26;;;;;;;9.70;5.50;;;;;;;;;;5016772;28;20394;-51
2022/01/08 09:08:52;;;;;;;12.23;6.05;;;;;;;;;;5028438;28;20025;-53
2022/01/08 09:11:18;;;;;;;12.60;6.88;;;;;;;;;;5026756;28;20030;-51
2022/01/08 09:13:44;;;;;;;11.77;6.20;;;;;;;;;;5015934;28;20037;-52
2022/01/08 09:16:10;;;;;;;10.93;6.57;;;;;;;;;;5017692;28;20061;-51
2022/01/08 09:18:36;;;;;;;10.88;6.38;;;;;;;;;;5020448;28;20018;-52
2022/01/08 09:21:02;;;;;;;10.80;5.40;;;;;;;;;;5033971;28;20034;-51
2022/01/08 09:23:30;;;;;;;11.05;6.15;;;;;;;;;;5030983;28;20048;-54
2022/01/08 09:25:56;;;;;;;12.27;6.30;;;;;;;;;;5025205;28;20156;-51
2022/01/08 09:28:22;;;;;;;12.90;7.03;;;;;;;;;;5030789;28;20030;-50
2022/01/08 09:30:48;;;;;;;11.25;6.25;;;;;;;;;;5031590;28;20048;-55
2022/01/08 09:33:14;;;;;;;11.27;6.45;;;;;;;;;;5029170;28;20128;-54
2022/01/08 09:35:40;;;;;;;12.00;6.95;;;;;;;;;;5043984;28;20183;-50
2022/01/08 09:38:06;;;;;;;11.93;6.20;;;;;;;;;;5034964;28;20022;-55
2022/01/08 09:40:32;;;;;;;11.38;6.75;;;;;;;;;;5031820;28;20529;-51
2022/01/08 09:42:58;;;;;;;11.48;6.78;;;;;;;;;;5022600;28;20029;-54
2022/01/08 09:45:24;;;;;;;10.50;6.38;;;;;;;;;;5031573;28;20033;-50
2022/01/08 09:47:52;;;;;;;11.35;6.68;;;;;;;;;;5034169;28;20354;-52
2022/01/08 09:50:18;;;;;;;9.18;5.53;;;;;;;;;;5034702;28;20120;-53
2022/01/08 09:52:44;;;;;;;12.35;6.15;;;;;;;;;;5022039;28;20112;-50
2022/01/08 09:55:10;;;;;;;10.18;5.80;;;;;;;;;;5031785;28;20033;-54
2022/01/08 09:57:36;;;;;;;9.85;6.03;;;;;;;;;;5034067;28;20048;-51
2022/01/08 10:00:09;;;;;;;9.75;6.05;;;;;;;;;;5029253;28;20030;-52
2022/01/08 10:02:35;;;;;;;10.77;5.75;;;;;;;;;;5032193;28;20032;-51
2022/01/08 10:05:07;;;;;;;11.15;6.60;;;;;;;;;;5036352;28;20105;-52
2022/01/08 10:07:33;;;;;;;10.87;5.27;;;;;;;;;;5027666;28;20504;-52
2022/01/08 10:10:15;;;;;;;10.85;6.50;;;;;;;;;;5025897;28;20037;-50
2022/01/08 10:12:54;;;;;;;12.88;6.65;;;;;;;;;;5033075;28;20026;-55
2022/01/08 10:18:21;;;;;;;11.27;6.22;;;;;;;;;;5024028;28;20060;-51
2022/01/08 10:20:49;;;;;;;14.60;7.50;;;;;;;;;;5024469;28;20381;-54
2022/01/08 10:23:20;;;;;;;12.18;6.75;;;;;;;;;;5022134;28;20025;-55
2022/01/08 10:26:02;;;;;;;9.70;5.93;;;;;;;;;;5034683;28;20120;-54
2022/01/08 10:28:42;;;;;;;9.05;5.50;;;;;;;;;;5033959;28;20030;-50
2022/01/08 10:31:09;;;;;;;9.77;4.93;;;;;;;;;;5033466;28;20387;-52
2022/01/08 10:33:35;;;;;;;9.57;4.63;;;;;;;;;;5033273;28;20081;-50
2022/01/08 10:36:01;;;;;;;8.82;4.38;;;;;;;;;;5032211;28;20129;-50
2022/01/08 10:38:28;;;;;;;7.82;4.97;;;;;;;;;;5025852;28;20029;-52
2022/01/08 10:40:54;;;;;;;8.57;5.35;;;;;;;;;;5026076;28;20097;-51
2022/01/08 10:43:25;;;;;;;8.02;5.13;;;;;;;;;;5021787;28;20386;-52
2022/01/08 10:45:52;;;;;;;9.80;5.25;;;;;;;;;;5021191;28;20050;-51
2022/01/08 10:48:25;;;;;;;10.57;5.57;;;;;;;;;;5030670;28;20045;-50
2022/01/08 10:50:51;;;;;;;8.40;5.13;;;;;;;;;;5021007;28;20030;-50
2022/01/08 10:53:17;;;;;;;14.77;6.32;;;;;;;;;;5026026;28;20076;-50
2022/01/08 10:55:43;;;;;;;9.48;5.82;;;;;;;;;;5020299;28;20065;-53
2022/01/08 10:58:09;;;;;;;11.77;5.65;;;;;;;;;;5021081;28;20022;-50
2022/01/08 11:00:35;;;;;;;13.80;5.97;;;;;;;;;;5022917;28;20350;-51
2022/01/08 11:03:01;;;;;;;10.50;5.43;;;;;;;;;;5023559;28;20018;-52
2022/01/08 11:05:28;;;;;;;9.10;5.50;;;;;;;;;;5016994;28;20029;-53
2022/01/08 11:08:12;;;;;;;10.85;5.60;;;;;;;;;;5022112;28;20059;-51
2022/01/08 11:10:38;;;;;;;12.98;5.70;;;;;;;;;;5025591;28;20108;-52
2022/01/08 11:13:06;;;;;;;10.85;6.25;;;;;;;;;;5023974;28;20038;-51
2022/01/08 11:15:48;;;;;;;12.52;6.30;;;;;;;;;;5031770;28;20466;-52
2022/01/08 11:18:15;;;;;;;10.05;5.78;;;;;;;;;;5024242;28;20041;-54
2022/01/08 11:20:42;;;;;;;11.77;5.80;;;;;;;;;;5025740;28;20046;-56
2022/01/08 11:23:11;;;;;;;11.18;5.93;;;;;;;;;;5019139;28;20040;-53
2022/01/08 11:25:38;;;;;;;14.18;5.97;;;;;;;;;;5021010;28;20087;-50
2022/01/08 11:28:05;;;;;;;10.02;5.90;;;;;;;;;;5019485;28;20038;-55
2022/01/08 11:30:33;;;;;;;13.68;6.32;;;;;;;;;;5028798;28;20037;-53
2022/01/08 11:33:03;;;;;;;11.75;5.30;;;;;;;;;;5031040;28;20079;-52
2022/01/08 11:35:32;;;;;;;11.95;5.35;;;;;;;;;;5022202;28;20041;-54
2022/01/08 11:38:02;;;;;;;9.48;5.25;;;;;;;;;;5029253;28;20144;-53
2022/01/08 11:40:28;;;;;;;9.98;5.60;;;;;;;;;;5030349;28;20108;-55
2022/01/08 11:42:54;;;;;;;12.02;5.63;;;;;;;;;;5018766;28;20026;-56
2022/01/08 11:45:22;;;;;;;12.45;5.68;;;;;;;;;;5027404;28;20024;-55
2022/01/08 11:47:50;;;;;;;10.27;5.10;;;;;;;;;;5020498;28;20024;-55
2022/01/08 11:50:25;;;;;;;10.35;5.15;;;;;;;;;;5024421;28;20033;-55
2022/01/08 11:53:14;;;;;;;10.63;5.97;;;;;;;;;;5025308;28;20067;-56
2022/01/08 11:55:40;;;;;;;9.95;5.32;;;;;;;;;;5017151;28;20065;-55
2022/01/08 11:58:23;;;;;;;10.50;5.50;;;;;;;;;;5020802;28;20054;-53
2022/01/08 12:00:54;;;;;;;11.57;4.88;;;;;;;;;;5026612;28;20025;-56
2022/01/08 12:03:32;;;;;;;13.77;5.35;;;;;;;;;;5029862;28;20108;-54
2022/01/08 12:05:59;;;;;;;9.27;5.13;;;;;;;;;;5024162;28;20076;-51
2022/01/08 12:08:45;;;;;;;9.82;5.53;;;;;;;;;;5018308;28;20034;-55
2022/01/08 12:11:11;;;;;;;11.43;5.10;;;;;;;;;;5021690;28;20385;-50
2022/01/08 12:13:47;;;;;;;8.70;4.15;;;;;;;;;;5020523;28;20067;-51
2022/01/08 12:16:33;;;;;;;6.03;3.67;;;;;;;;;;5021315;28;20036;-56
2022/01/08 12:18:59;;;;;;;7.53;3.40;;;;;;;;;;5026171;28;20048;-52
2022/01/08 12:21:36;;;;;;;7.72;3.45;;;;;;;;;;5034081;28;20031;-54
2022/01/08 12:24:21;;;;;;;5.82;3.50;;;;;;;;;;5027199;28;20120;-55
2022/01/08 12:26:47;;;;;;;6.35;3.20;;;;;;;;;;5019292;28;20072;-54
2022/01/08 12:29:32;;;;;;;7.35;3.85;;;;;;;;;;5025612;28;20040;-55
2022/01/08 12:32:16;;;;;;;3.75;2.47;;;;;;;;;;5029128;28;20069;-55
2022/01/08 12:34:46;;;;;;;6.30;2.72;;;;;;;;;;5012106;28;20100;-51
2022/01/08 12:37:13;;;;;;;8.13;3.55;;;;;;;;;;5026934;28;20037;-54
2022/01/08 12:39:42;;;;;;;6.00;2.78;;;;;;;;;;5039180;28;20495;-56
2022/01/08 12:42:20;;;;;;;5.35;3.20;;;;;;;;;;5034683;28;20477;-54
2022/01/08 12:45:07;;;;;;;7.40;3.13;;;;;;;;;;5025526;28;20022;-55
2022/01/08 12:47:40;;;;;;;3.63;2.53;;;;;;;;;;5025167;28;20444;-54
2022/01/08 12:50:25;;;;;;;5.75;2.88;;;;;;;;;;5027654;28;20151;-55
2022/01/08 12:53:06;;;;;;;6.32;3.08;;;;;;;;;;5025702;28;20040;-53
2022/01/08 12:56:08;;;;;;;6.53;3.40;;;;;;;;;;5021646;28;20369;-55
2022/01/08 12:58:39;;;;;;;5.95;3.83;;;;;;;;;;5023668;28;20446;-54
2022/01/08 13:01:06;;;;;;;7.20;3.42;;;;;;;;;;5029612;28;20065;-53
2022/01/08 13:03:34;;;;;;;6.90;3.63;;;;;;;;;;5031640;28;20025;-56
2022/01/08 13:06:01;;;;;;;8.20;3.80;;;;;;;;;;5033816;28;20037;-54
2022/01/08 13:08:28;;;;;;;6.75;3.63;;;;;;;;;;5027569;28;20033;-56
2022/01/08 13:11:00;;;;;;;7.28;3.55;;;;;;;;;;5022398;28;20089;-55
2022/01/08 13:13:27;;;;;;;9.60;4.18;;;;;;;;;;5030355;28;20147;-55
2022/01/08 13:15:54;;;;;;;9.63;6.75;;;;;;;;;;5035624;28;20029;-51
2022/01/08 13:18:23;;;;;;;6.80;4.60;;;;;;;;;;5027460;28;20159;-55
2022/01/08 13:21:03;;;;;;;10.63;4.97;;;;;;;;;;5030183;28;20076;-56
2022/01/08 13:23:29;;;;;;;9.00;4.90;;;;;;;;;;5028426;28;20043;-53
2022/01/08 13:25:56;;;;;;;8.18;4.28;;;;;;;;;;5030173;28;20071;-52
2022/01/08 13:28:26;;;;;;;9.60;4.15;;;;;;;;;;5029559;28;20485;-52
2022/01/08 13:30:52;;;;;;;10.85;5.15;;;;;;;;;;5031887;28;20025;-51
2022/01/08 13:33:25;;;;;;;8.85;4.20;;;;;;;;;;5031834;28;20042;-52
2022/01/08 13:35:58;;;;;;;8.50;4.68;;;;;;;;;;5025462;28;20065;-53
2022/01/08 13:38:28;;;;;;;7.38;3.60;;;;;;;;;;5035242;28;20048;-50
2022/01/08 13:40:54;;;;;;;8.13;4.70;;;;;;;;;;5019743;28;20136;-51
2022/01/08 13:43:20;;;;;;;10.98;5.22;;;;;;;;;;5027663;28;20033;-51
2022/01/08 13:45:53;;;;;;;10.38;4.40;;;;;;;;;;5033189;28;20743;-50
2022/01/08 13:48:19;;;;;;;6.53;3.60;;;;;;;;;;5027896;28;20034;-54
2022/01/08 13:50:52;;;;;;;11.60;4.68;;;;;;;;;;5025330;28;20129;-56
2022/01/08 13:53:18;;;;;;;9.52;4.82;;;;;;;;;;5034305;28;20043;-56
2022/01/08 13:55:46;;;;;;;10.90;4.88;;;;;;;;;;5031526;28;20022;-55
2022/01/08 13:58:15;;;;;;;9.77;4.10;;;;;;;;;;5017808;28;20041;-52
2022/01/08 14:00:43;;;;;;;8.75;4.47;;;;;;;;;;5018385;28;20060;-50
2022/01/08 14:03:22;;;;;;;8.73;4.60;;;;;;;;;;5023871;28;20030;-55
2022/01/08 14:05:48;;;;;;;6.95;4.00;;;;;;;;;;5019124;28;20461;-51
2022/01/08 14:08:14;;;;;;;6.97;4.35;;;;;;;;;;5024441;28;20120;-55
2022/01/08 14:10:45;;;;;;;10.88;4.28;;;;;;;;;;5024641;28;20461;-56
2022/01/08 14:13:15;;;;;;;10.93;3.97;;;;;;;;;;5035590;28;20037;-55
2022/01/08 14:15:42;;;;;;;7.50;4.28;;;;;;;;;;5035506;28;20116;-51
2022/01/08 14:18:09;;;;;;;7.22;4.30;;;;;;;;;;5024844;28;20038;-52
2022/01/08 14:20:35;;;;;;;8.98;4.30;;;;;;;;;;5032981;28;20372;-56
2022/01/08 14:23:11;;;;;;;9.43;3.88;;;;;;;;;;5028036;28;20072;-54
2022/01/08 14:25:37;;;;;;;7.35;3.65;;;;;;;;;;5022171;28;20037;-56
2022/01/08 14:28:18;;;;;;;6.47;4.03;;;;;;;;;;5023089;28;20469;-54
2022/01/08 14:30:44;;;;;;;10.65;5.65;;;;;;;;;;5028521;28;20032;-55
2022/01/08 14:33:10;;;;;;;8.35;4.10;;;;;;;;;;5027893;28;20034;-55
2022/01/08 14:35:36;;;;;;;4.78;3.22;;;;;;;;;;5027949;28;20034;-56
2022/01/08 14:38:03;;;;;;;7.95;3.78;;;;;;;;;;5027777;28;20113;-55
2022/01/08 14:40:31;;;;;;;7.70;3.92;;;;;;;;;;5020692;28;20037;-56
2022/01/08 14:42:57;;;;;;;10.05;5.18;;;;;;;;;;5030443;28;20065;-54
2022/01/08 14:45:23;;;;;;;6.82;3.65;;;;;;;;;;5030761;28;20029;-56
2022/01/08 14:47:49;;;;;;;7.18;3.75;;;;;;;;;;5030682;28;20048;-54
2022/01/08 14:50:17;;;;;;;10.63;3.85;;;;;;;;;;5024235;28;20100;-54
2022/01/08 14:52:44;;;;;;;5.63;3.88;;;;;;;;;;5028936;28;20410;-55
2022/01/08 14:55:11;;;;;;;9.80;3.65;;;;;;;;;;5032678;28;20026;-52
2022/01/08 14:57:37;;;;;;;9.68;4.32;;;;;;;;;;5029637;28;20084;-56
2022/01/08 15:00:09;;;;;;;7.45;3.53;;;;;;;;;;5030431;28;20021;-54
2022/01/08 15:02:36;;;;;;;7.53;4.43;;;;;;;;;;5028548;28;20373;-54